Data for 04/24/2013

Time Sea-Level Adjusted Pressure Absolute Pressure Temperature Relative Humidity Dew Point   
(mb) (inHg) (mb) (inHg) (C) (F) (%) (C) (F)
00:05 1022 30.18 851 25.13 0.8 33.4 56 -7 19.5
00:10 1022 30.18 851 25.13 0.7 33.3 56 -7 19.4
00:15 1022 30.18 852 25.16 0.7 33.2 56 -7.1 19.3
00:20 1022 30.18 852 25.16 0.7 33.3 56 -7.2 19
00:25 1022 30.18 852 25.16 0.8 33.4 55 -7.2 19
00:30 1022 30.18 852 25.16 0.8 33.5 55 -7.1 19.2
00:35 1022 30.18 852 25.16 0.8 33.5 55 -7.2 19
00:40 1022 30.18 852 25.16 0.8 33.5 54 -7.4 18.6
00:45 1022 30.18 852 25.16 0.9 33.7 52 -7.8 18
00:50 1022 30.18 852 25.16 1 33.9 52 -7.9 17.8
00:55 1023 30.21 852 25.16 1.1 34 51 -7.9 17.8
01:00 1022 30.18 852 25.16 1.1 34.1 50 -8.1 17.4
01:05 1022 30.18 852 25.16 1.1 34.1 50 -8.1 17.4
01:10 1023 30.21 852 25.16 1.2 34.1 50 -8.2 17.3
01:15 1023 30.21 852 25.16 1.2 34.1 50 -8.2 17.2
01:20 1023 30.21 852 25.16 1.2 34.1 49 -8.3 17.1
01:25 1023 30.21 852 25.16 1.2 34.1 50 -8.3 17.1
01:30 1023 30.21 852 25.16 1.1 33.9 50 -8.1 17.4
01:35 1023 30.21 852 25.16 1 33.8 51 -8 17.6
01:40 1023 30.21 852 25.16 0.9 33.7 50 -8.2 17.2
01:45 1023 30.21 852 25.16 0.9 33.6 51 -8.2 17.3
01:50 1023 30.21 852 25.16 0.9 33.7 51 -8.1 17.3
01:55 1023 30.21 852 25.16 0.9 33.7 50 -8.3 17.1
02:00 1022 30.18 852 25.16 0.9 33.7 50 -8.4 16.9
02:05 1022 30.18 852 25.16 1 33.8 49 -8.5 16.8
02:10 1022 30.18 852 25.16 1 33.8 50 -8.4 16.9
02:15 1022 30.18 852 25.16 1 33.7 49 -8.5 16.7
02:20 1022 30.18 852 25.16 0.9 33.7 49 -8.6 16.5
02:25 1023 30.21 852 25.16 0.9 33.5 50 -8.4 16.9
02:30 1023 30.21 852 25.16 0.6 33.1 51 -8.4 16.9
02:35 1023 30.21 852 25.16 0.4 32.8 51 -8.6 16.5
02:40 1023 30.21 852 25.16 0.3 32.5 51 -8.8 16.2
02:45 1023 30.21 852 25.16 0.2 32.4 51 -8.8 16.2
02:50 1023 30.21 852 25.16 0.2 32.4 51 -8.7 16.4
02:55 1023 30.21 852 25.16 0.1 32.2 52 -8.5 16.7
03:00 1023 30.21 852 25.16 -0.1 31.9 54 -8.4 17
03:05 1023 30.21 852 25.16 -0.3 31.5 55 -8.3 17.1
03:10 1023 30.21 852 25.16 -0.5 31 56 -8.3 17
03:15 1023 30.21 852 25.16 -0.7 30.7 56 -8.4 17
03:20 1023 30.21 852 25.16 -0.8 30.6 55 -8.6 16.5
03:25 1023 30.21 852 25.16 -0.7 30.7 55 -8.7 16.3
03:30 1023 30.21 852 25.16 -0.7 30.8 55 -8.8 16.2
03:35 1023 30.21 852 25.16 -0.7 30.7 55 -8.8 16.2
03:40 1023 30.21 852 25.16 -0.7 30.8 55 -8.7 16.3
03:45 1023 30.21 852 25.16 -0.7 30.8 54 -8.8 16.1
03:50 1023 30.21 852 25.16 -0.5 31.1 54 -8.7 16.4
03:55 1023 30.21 852 25.16 -0.6 30.9 54 -8.7 16.3
04:00 1023 30.21 852 25.16 -0.5 31 54 -8.8 16.2
04:05 1023 30.21 852 25.16 -0.6 30.8 54 -8.7 16.3
04:10 1023 30.21 853 25.19 -0.7 30.7 54 -8.8 16.2
04:15 1023 30.21 853 25.19 -0.8 30.6 55 -8.8 16.2
04:20 1023 30.21 853 25.19 -0.8 30.5 55 -8.8 16.2
04:25 1023 30.21 853 25.19 -0.9 30.3 55 -8.8 16.2
04:30 1023 30.21 853 25.19 -1 30.2 56 -8.8 16.2
04:35 1023 30.21 853 25.19 -1.2 29.9 56 -8.8 16.1
04:40 1023 30.21 852 25.16 -1.2 29.9 57 -8.7 16.3
04:45 1023 30.21 852 25.16 -1.2 29.8 57 -8.7 16.4
04:50 1023 30.21 852 25.16 -1.6 29.1 59 -8.7 16.4
04:55 1023 30.21 852 25.16 -1.6 29.2 58 -8.7 16.3
05:00 1023 30.21 852 25.16 -1.5 29.3 58 -8.6 16.5
05:05 1023 30.21 852 25.16 -1.5 29.3 58 -8.7 16.3
05:10 1023 30.21 852 25.16 -1.4 29.5 58 -8.6 16.5
05:15 1023 30.21 852 25.16 -1.2 29.8 57 -8.6 16.5
05:20 1023 30.21 853 25.19 -1.3 29.7 59 -8.4 16.9
05:25 1023 30.21 853 25.19 -1.4 29.5 59 -8.5 16.8
05:30 1023 30.21 853 25.19 -1.7 28.9 60 -8.5 16.8
05:35 1023 30.21 853 25.19 -1.7 29 60 -8.4 16.8
05:40 1024 30.24 853 25.19 -1.7 29 61 -8.3 17
05:45 1024 30.24 853 25.19 -1.7 28.9 60 -8.5 16.7
05:50 1024 30.24 853 25.19 -1.5 29.4 60 -8.4 16.9
05:55 1024 30.24 853 25.19 -1.4 29.5 60 -8.1 17.4
06:00 1024 30.24 853 25.19 -1.5 29.3 61 -8.1 17.3
06:05 1024 30.24 853 25.19 -1.5 29.2 61 -8.1 17.4
06:10 1024 30.24 853 25.19 -1.6 29.2 61 -8.2 17.3
06:15 1024 30.24 853 25.19 -1.5 29.3 61 -8.1 17.5
06:20 1024 30.24 853 25.19 -1.5 29.3 61 -8 17.5
06:25 1024 30.24 853 25.19 -1.5 29.3 60 -8.3 17.1
06:30 1024 30.24 853 25.19 -1.3 29.6 61 -8 17.7
06:35 1024 30.24 853 25.19 -1.1 29.9 60 -8 17.6
06:40 1024 30.24 853 25.19 -1.2 29.9 61 -7.9 17.8
06:45 1024 30.24 853 25.19 -1.1 30.1 60 -7.9 17.8
06:50 1024 30.24 853 25.19 -0.6 30.9 57 -8 17.6
06:55 1024 30.24 853 25.19 -0.5 31.1 58 -7.8 18
07:00 1024 30.24 853 25.19 -0.2 31.7 57 -7.8 18
07:05 1024 30.24 853 25.19 0.1 32.2 56 -7.6 18.4
07:10 1024 30.24 853 25.19 0.4 32.7 56 -7.4 18.7
07:15 1024 30.24 853 25.19 0.8 33.4 55 -7.3 18.8
07:20 1024 30.24 853 25.19 1.1 34 54 -7.2 19
07:25 1024 30.24 854 25.22 1.3 34.3 53 -7.2 19.1
07:30 1024 30.24 854 25.22 1.4 34.6 52 -7.4 18.7
07:35 1024 30.24 854 25.22 1.7 35 51 -7.4 18.7
07:40 1024 30.24 854 25.22 1.9 35.4 51 -7.2 19.1
07:45 1024 30.24 854 25.22 2.1 35.7 49 -7.5 18.5
07:50 1024 30.24 854 25.22 2.2 35.9 50 -7.2 19.1
07:55 1024 30.24 854 25.22 2.2 36 50 -7.2 19
08:00 1024 30.24 854 25.22 2.5 36.6 48 -7.3 18.9
08:05 1024 30.24 854 25.22 2.7 36.9 47 -7.5 18.4
08:10 1024 30.24 854 25.22 2.6 36.6 48 -7.4 18.7
08:15 1024 30.24 854 25.22 2.8 37.1 46 -7.7 18.2
08:20 1024 30.24 854 25.22 3 37.3 46 -7.6 18.4
08:25 1024 30.24 854 25.22 3.1 37.6 46 -7.3 18.8
08:30 1024 30.24 853 25.19 3.5 38.3 45 -7.5 18.6
08:35 1024 30.24 853 25.19 3.5 38.4 46 -7.1 19.2
08:40 1024 30.24 853 25.19 3.7 38.7 45 -7.2 19.1
08:45 1024 30.24 853 25.19 4.1 39.3 42 -7.6 18.2
08:50 1024 30.24 853 25.19 4.5 40 42 -7.2 19
08:55 1024 30.24 853 25.19 4.9 40.9 39 -7.9 17.8
09:00 1024 30.24 853 25.19 5.1 41.1 40 -7.5 18.4
09:05 1024 30.24 853 25.19 5.3 41.6 38 -8 17.6
09:10 1024 30.24 853 25.19 5.1 41.2 38 -7.9 17.8
09:15 1024 30.24 853 25.19 5.5 41.9 37 -8.2 17.3
09:20 1024 30.24 853 25.19 5.4 41.8 39 -7.5 18.6
09:25 1024 30.24 853 25.19 5.2 41.4 38 -8 17.5
09:30 1024 30.24 853 25.19 5.3 41.5 38 -8 17.6
09:35 1024 30.24 853 25.19 5.5 41.8 38 -7.6 18.2
09:40 1024 30.24 853 25.19 6 42.8 37 -7.7 18.2
09:45 1024 30.24 853 25.19 6.4 43.6 34 -8.3 17
09:50 1024 30.24 853 25.19 6.6 43.8 35 -7.8 18
09:55 1024 30.24 853 25.19 6.6 43.9 34 -8.1 17.5
10:00 1024 30.24 853 25.19 6.4 43.6 35 -8.1 17.5
10:05 1024 30.24 853 25.19 6.3 43.4 34 -8.4 16.9
10:10 1024 30.24 853 25.19 6.8 44.3 33 -8.4 16.9
10:15 1024 30.24 853 25.19 6.5 43.7 33 -8.5 16.7
10:20 1024 30.24 853 25.19 6.3 43.4 34 -8.5 16.6
10:25 1024 30.24 853 25.19 6.1 42.9 33 -9.1 15.7
10:30 1024 30.24 853 25.19 6.3 43.4 33 -8.7 16.4
10:35 1024 30.24 853 25.19 5.8 42.4 36 -8.3 17
10:40 1024 30.24 853 25.19 6 42.8 31 -9.8 14.4
10:45 1024 30.24 853 25.19 6.8 44.3 30 -9.6 14.8
10:50 1023 30.21 853 25.19 7.4 45.4 28 -9.8 14.4
10:55 1023 30.21 853 25.19 7 44.5 30 -9.5 14.9
11:00 1023 30.21 853 25.19 6.9 44.4 30 -9.4 15.1
11:05 1023 30.21 853 25.19 7.6 45.6 29 -9.2 15.4
11:10 1023 30.21 853 25.19 7.7 45.8 28 -9.8 14.4
11:15 1023 30.21 852 25.16 8.3 46.9 28 -9.3 15.3
11:20 1023 30.21 852 25.16 8.7 47.7 27 -9.5 15
11:25 1023 30.21 852 25.16 8.5 47.2 27 -9.6 14.7
11:30 1023 30.21 852 25.16 8.6 47.5 26 -9.6 14.7
11:35 1023 30.21 852 25.16 9 48.1 26 -9.4 15
11:40 1023 30.21 852 25.16 9.1 48.4 26 -9.6 14.8
11:45 1023 30.21 852 25.16 9.1 48.5 27 -9.1 15.6
11:50 1023 30.21 852 25.16 9.1 48.4 27 -8.8 16.2
11:55 1023 30.21 852 25.16 8.4 47.1 29 -8.5 16.8
12:00 1023 30.21 852 25.16 9 48.1 26 -9.7 14.5
12:05 1022 30.18 852 25.16 9.1 48.4 25 -9.9 14.2
12:10 1022 30.18 852 25.16 9.4 48.9 26 -9.4 15.1
12:15 1022 30.18 851 25.13 9.7 49.4 26 -9.1 15.6
12:20 1022 30.18 851 25.13 9.6 49.3 26 -8.9 16
12:25 1022 30.18 851 25.13 9.7 49.5 25 -9.4 15.1
12:30 1022 30.18 851 25.13 10.3 50.6 25 -9.1 15.6
12:35 1022 30.18 851 25.13 10.7 51.2 23 -9.3 15.2
12:40 1022 30.18 851 25.13 10.6 51 24 -9.2 15.5
12:45 1022 30.18 851 25.13 10.4 50.7 24 -9.2 15.4
12:50 1022 30.18 851 25.13 9.8 49.6 24 -9.9 14.2
12:55 1022 30.18 851 25.13 10 49.9 23 -10.1 13.8
13:00 1022 30.18 851 25.13 10.4 50.7 23 -10.1 13.8
13:05 1021 30.15 851 25.13 10.7 51.3 23 -9.6 14.6
13:10 1021 30.15 851 25.13 10.5 51 22 -10 13.9
13:15 1021 30.15 850 25.1 10.8 51.4 21 -10.5 13
13:20 1021 30.15 850 25.1 10.5 50.9 21 -10.7 12.7
13:25 1021 30.15 850 25.1 10.9 51.6 20 -11.4 11.5
13:30 1021 30.15 850 25.1 10.9 51.6 20 -11 12.2
13:35 1021 30.15 850 25.1 10.9 51.6 21 -10.7 12.7
13:40 1021 30.15 850 25.1 10.7 51.2 22 -10.4 13.3
13:45 1021 30.15 850 25.1 10.3 50.6 23 -10 13.9
13:50 1021 30.15 850 25.1 11.3 52.4 21 -10.2 13.7
13:55 1021 30.15 850 25.1 11.5 52.7 20 -10.6 12.9
14:00 1021 30.15 850 25.1 11.3 52.3 21 -10.4 13.3
14:05 1021 30.15 850 25.1 10.9 51.5 21 -10.4 13.4
14:10 1020 30.12 850 25.1 11.4 52.5 22 -9.8 14.4
14:15 1020 30.12 850 25.1 12.2 54 21 -9.7 14.5
14:20 1020 30.12 849 25.07 12.3 54.1 20 -10.4 13.3
14:25 1020 30.12 849 25.07 11.4 52.6 21 -10 14
14:30 1020 30.12 849 25.07 10.9 51.7 21 -10.4 13.3
14:35 1020 30.12 849 25.07 11.2 52.2 22 -9.9 14.2
14:40 1020 30.12 849 25.07 12 53.6 19 -10.7 12.7
14:45 1020 30.12 849 25.07 12.4 54.4 18 -11.3 11.6
14:50 1020 30.12 849 25.07 12.8 55.1 19 -10.6 13
14:55 1020 30.12 849 25.07 12.3 54.1 18 -11.3 11.7
15:00 1020 30.12 849 25.07 12.2 54 19 -10.7 12.7
15:05 1019 30.09 849 25.07 12.2 53.9 19 -10.7 12.8
15:10 1019 30.09 849 25.07 12 53.6 19 -11.3 11.7
15:15 1019 30.09 848 25.04 11.9 53.5 18 -11.4 11.6
15:20 1019 30.09 848 25.04 12.3 54.1 18 -11.7 11
15:25 1019 30.09 848 25.04 12.6 54.7 17 -11.7 10.9
15:30 1019 30.09 848 25.04 12.3 54.1 18 -11.3 11.7
15:35 1019 30.09 848 25.04 12.6 54.7 18 -11.4 11.5
15:40 1019 30.09 848 25.04 12.9 55.3 17 -11.6 11.1
15:45 1019 30.09 848 25.04 12.8 55.1 16 -12.1 10.3
15:50 1019 30.09 848 25.04 12.6 54.7 17 -12 10.4
15:55 1018 30.06 848 25.04 13.1 55.7 16 -12.3 9.9
16:00 1018 30.06 848 25.04 13.2 55.7 17 -11.6 11.1
16:05 1018 30.06 848 25.04 13 55.3 17 -11.9 10.6
16:10 1018 30.06 848 25.04 12.8 55.1 16 -12.5 9.4
16:15 1018 30.06 847 25.01 12.6 54.6 17 -11.8 10.8
16:20 1018 30.06 847 25.01 12.9 55.1 17 -11.7 11
16:25 1018 30.06 847 25.01 12.7 54.9 15 -12.9 8.8
16:30 1018 30.06 847 25.01 12.6 54.6 16 -12.3 9.8
16:35 1018 30.06 847 25.01 13 55.3 16 -12 10.4
16:40 1018 30.06 847 25.01 12.8 55 16 -12.6 9.3
16:45 1018 30.06 847 25.01 12.8 55 16 -12.4 9.6
16:50 1018 30.06 847 25.01 13.3 56 15 -12.8 9
16:55 1018 30.06 847 25.01 13.2 55.7 15 -12.6 9.4
17:00 1018 30.06 847 25.01 13.3 56 15 -12.7 9.2
17:05 1017 30.03 847 25.01 13.4 56.2 15 -12.8 8.9
17:10 1017 30.03 847 25.01 13.5 56.2 15 -13 8.5
17:15 1017 30.03 846 24.98 13.4 56.1 15 -12.9 8.8
17:20 1017 30.03 846 24.98 13.3 55.9 14 -13.3 8.1
17:25 1017 30.03 846 24.98 13.4 56.1 14 -13.3 8
17:30 1017 30.03 846 24.98 13.3 55.9 15 -13 8.5
17:35 1017 30.03 846 24.98 13.2 55.8 15 -13.2 8.2
17:40 1017 30.03 846 24.98 13.3 55.9 15 -13 8.5
17:45 1017 30.03 846 24.98 13 55.3 15 -13.3 8
17:50 1017 30.03 846 24.98 12.9 55.2 15 -13.3 8.1
17:55 1017 30.03 846 24.98 12.9 55.2 15 -13.1 8.4
18:00 1017 30.03 846 24.98 12.9 55.2 15 -13.5 7.7
18:05 1017 30.03 846 24.98 12.9 55.2 15 -13.3 8.1
18:10 1017 30.03 846 24.98 12.9 55.2 15 -13.3 8.1
18:15 1016 30 846 24.98 12.9 55.2 15 -12.8 8.9
18:20 1016 30 846 24.98 12.8 55.1 16 -12.7 9.1
18:25 1016 30 846 24.98 12.8 55 15 -13 8.7
18:30 1016 30 845 24.95 12.6 54.8 15 -13 8.5
18:35 1016 30 845 24.95 12.6 54.6 15 -13.1 8.5
18:40 1016 30 845 24.95 12.5 54.5 16 -12.9 8.8
18:45 1016 30 845 24.95 12.4 54.3 16 -12.9 8.8
18:50 1016 30 845 24.95 12.3 54.1 15 -13.3 8.1
18:55 1016 30 845 24.95 12.1 53.8 15 -13.5 7.7
19:00 1016 30 845 24.95 12 53.6 16 -13.4 7.9
19:05 1016 30 845 24.95 11.8 53.2 16 -13 8.6
19:10 1016 30 845 24.95 11.5 52.8 17 -12.9 8.7
19:15 1016 30 845 24.95 11.3 52.3 18 -12.4 9.6
19:20 1016 30 845 24.95 10.8 51.5 18 -12.8 9
19:25 1016 30 845 24.95 10.6 51.1 19 -12.3 9.9
19:30 1016 30 846 24.98 10.3 50.5 19 -12.6 9.2
19:35 1016 30 846 24.98 10.2 50.4 18 -12.8 8.9
19:40 1016 30 846 24.98 10.2 50.3 18 -13.1 8.5
19:45 1016 30 846 24.98 10.1 50.2 18 -13.3 8.1
19:50 1016 30 846 24.98 10.1 50.2 18 -13 8.6
19:55 1016 30 846 24.98 9.8 49.7 19 -12.7 9.1
20:00 1016 30 846 24.98 9.6 49.2 19 -12.9 8.7
20:05 1016 30 846 24.98 9.4 48.9 19 -12.8 8.9
20:10 1017 30.03 846 24.98 9.1 48.5 20 -12.9 8.8
20:15 1017 30.03 846 24.98 9 48.1 20 -12.8 9
20:20 1017 30.03 846 24.98 8.8 47.8 20 -12.8 9
20:25 1017 30.03 846 24.98 8.7 47.7 20 -12.8 9
20:30 1017 30.03 846 24.98 8.8 47.8 20 -13 8.6
20:35 1017 30.03 846 24.98 8.8 47.9 20 -13 8.7
20:40 1017 30.03 846 24.98 8.8 47.8 20 -12.9 8.9
20:45 1017 30.03 846 24.98 8.8 47.8 20 -13.1 8.4
20:50 1017 30.03 846 24.98 9 48.2 20 -13.1 8.4
20:55 1017 30.03 846 24.98 9.2 48.5 19 -13.2 8.2
21:00 1017 30.03 846 24.98 9.3 48.7 19 -13.3 8
21:05 1017 30.03 846 24.98 9.3 48.8 19 -13 8.7
21:10 1017 30.03 846 24.98 9.1 48.4 20 -12.8 9
21:15 1017 30.03 846 24.98 9 48.1 20 -12.8 8.9
21:20 1017 30.03 846 24.98 8.9 47.9 20 -13 8.7
21:25 1017 30.03 846 24.98 8.9 48.1 20 -12.8 9
21:30 1017 30.03 846 24.98 8.9 48.1 20 -12.8 8.9
21:35 1017 30.03 846 24.98 8.9 48.1 20 -12.8 9
21:40 1017 30.03 846 24.98 8.8 47.9 20 -12.7 9.2
21:45 1017 30.03 846 24.98 9 48.2 20 -13.1 8.4
21:50 1017 30.03 846 24.98 9.3 48.7 19 -13.3 8
21:55 1017 30.03 846 24.98 9.5 49.2 19 -13.3 8.1
22:00 1017 30.03 846 24.98 9.6 49.3 19 -13 8.5
22:05 1017 30.03 846 24.98 9.5 49.2 19 -13 8.5
22:10 1017 30.03 846 24.98 9.4 49 20 -12.7 9.2
22:15 1017 30.03 846 24.98 9.2 48.5 21 -12.3 9.8
22:20 1017 30.03 846 24.98 9 48.2 21 -12.4 9.7
22:25 1017 30.03 846 24.98 9 48.1 21 -12.2 10
22:30 1016 30 846 24.98 9 48.2 21 -12.1 10.2
22:35 1016 30 846 24.98 8.9 48.1 21 -12.2 10.1
22:40 1016 30 846 24.98 9 48.1 21 -12.2 10.1
22:45 1016 30 846 24.98 9.1 48.3 21 -12.4 9.8
22:50 1016 30 846 24.98 9.2 48.5 21 -12.2 10
22:55 1016 30 846 24.98 9.1 48.4 21 -12.1 10.3
23:00 1016 30 846 24.98 9 48.1 22 -11.8 10.7
23:05 1016 30 846 24.98 8.8 47.9 23 -11.5 11.3
23:10 1016 30 845 24.95 8.5 47.3 26 -9.8 14.4
23:15 1016 30 845 24.95 8.2 46.8 25 -10.8 12.5
23:20 1016 30 845 24.95 8 46.4 25 -10.8 12.6
23:25 1016 30 845 24.95 7.9 46.2 25 -10.8 12.6
23:30 1016 30 845 24.95 7.9 46.2 25 -10.9 12.4
23:35 1016 30 845 24.95 8.1 46.5 24 -11.5 11.3
23:40 1016 30 845 24.95 8.4 47.1 24 -11.2 11.8
23:45 1016 30 845 24.95 8.3 46.9 24 -11.2 11.9
23:50 1016 30 845 24.95 8.1 46.7 25 -10.9 12.4
23:55 1016 30 845 24.95 7.9 46.3 25 -10.8 12.6
24:00 1016 30 845 24.95 7.9 46.2 25 -10.8 12.5